createdAt,value
2023-01-09T00:00:52.075Z,25.48
2023-01-09T00:03:22.549Z,25.51
2023-01-09T00:05:53.476Z,25.53
2023-01-09T00:08:24.346Z,25.55
2023-01-09T00:10:54.919Z,25.55
2023-01-09T00:13:25.302Z,25.61
2023-01-09T00:16:01.389Z,25.63
2023-01-09T00:18:32.355Z,25.67
2023-01-09T00:21:04.299Z,25.76
2023-01-09T00:23:38.821Z,25.87
2023-01-09T00:26:15.788Z,25.95
2023-01-09T00:28:50.494Z,25.99
2023-01-09T00:31:22.421Z,26.09
2023-01-09T00:34:02.674Z,26.16
2023-01-09T00:36:42.119Z,26.23
2023-01-09T00:39:13.258Z,26.31
2023-01-09T00:41:47.943Z,26.38
2023-01-09T00:44:28.690Z,26.45
2023-01-09T00:47:03.038Z,26.48
2023-01-09T00:49:36.620Z,26.58
2023-01-09T00:52:08.402Z,26.62
2023-01-09T00:54:40.776Z,26.65
2023-01-09T00:57:14.274Z,26.67
2023-01-09T00:59:44.856Z,26.69
2023-01-09T01:02:16.145Z,26.79
2023-01-09T01:05:05.153Z,26.86
2023-01-09T01:07:42.112Z,26.88
2023-01-09T01:10:21.041Z,26.96
2023-01-09T01:12:54.067Z,27.04
2023-01-09T01:15:30.200Z,27.08
2023-01-09T01:18:00.879Z,27.14
2023-01-09T01:20:31.557Z,27.17
2023-01-09T01:23:03.029Z,27.19
2023-01-09T01:25:39.979Z,27.20
2023-01-09T01:28:11.522Z,27.22
2023-01-09T01:30:43.133Z,27.34
2023-01-09T01:33:15.654Z,27.37
2023-01-09T01:35:46.545Z,27.35
2023-01-09T01:38:16.855Z,27.36
2023-01-09T01:40:54.724Z,27.40
2023-01-09T01:43:26.019Z,27.42
2023-01-09T01:45:56.927Z,27.43
2023-01-09T01:48:31.137Z,27.48
2023-01-09T01:51:03.693Z,27.52
2023-01-09T01:53:37.571Z,27.47
2023-01-09T01:56:16.228Z,27.63
2023-01-09T01:58:56.920Z,27.71
2023-01-09T02:01:28.679Z,27.72
2023-01-09T02:04:00.790Z,27.86
2023-01-09T02:06:31.740Z,27.97
2023-01-09T02:09:04.685Z,28.01
2023-01-09T02:11:35.647Z,28.02
2023-01-09T02:14:07.177Z,28.03
2023-01-09T02:17:04.699Z,28.14
2023-01-09T02:20:03.254Z,28.25
2023-01-09T02:23:15.504Z,28.32
2023-01-09T02:26:20.958Z,28.27
2023-01-09T02:29:38.166Z,28.32
2023-01-09T02:32:15.975Z,28.29
2023-01-09T02:34:57.957Z,28.26
2023-01-09T02:37:46.871Z,28.32
2023-01-09T02:40:41.068Z,28.36
2023-01-09T02:43:12.435Z,28.41
2023-01-09T02:45:43.974Z,28.46
2023-01-09T02:48:34.506Z,28.48
2023-01-09T02:51:26.115Z,28.49
2023-01-09T02:54:03.084Z,28.47
2023-01-09T02:56:41.144Z,28.47
2023-01-09T02:59:25.757Z,28.43
2023-01-09T03:02:12.961Z,28.53
2023-01-09T03:05:01.567Z,28.63
2023-01-09T03:07:50.192Z,28.62
2023-01-09T03:10:33.204Z,28.69
2023-01-09T03:13:05.057Z,28.66
2023-01-09T03:15:37.613Z,28.70
2023-01-09T03:18:12.915Z,28.64
2023-01-09T03:20:44.387Z,28.66
2023-01-09T03:23:14.724Z,28.71
2023-01-09T03:25:45.172Z,28.74
2023-01-09T03:28:30.138Z,28.76
2023-01-09T03:31:00.540Z,28.70
2023-01-09T03:33:34.007Z,28.66
2023-01-09T03:36:04.779Z,28.65
2023-01-09T03:38:36.213Z,28.67
2023-01-09T03:41:08.414Z,28.68
2023-01-09T03:43:39.258Z,28.72
2023-01-09T03:46:10.197Z,28.74
2023-01-09T03:48:40.778Z,28.68
2023-01-09T03:51:13.498Z,28.70
2023-01-09T03:53:52.739Z,28.74
2023-01-09T03:56:23.050Z,28.72
2023-01-09T03:58:54.528Z,28.72
2023-01-09T04:01:25.242Z,28.72
2023-01-09T04:03:56.051Z,28.67
2023-01-09T04:06:29.048Z,28.67
2023-01-09T04:08:59.756Z,28.71
2023-01-09T04:11:31.263Z,28.66
2023-01-09T04:14:01.982Z,28.65
2023-01-09T04:16:32.991Z,28.67
2023-01-09T04:19:03.586Z,28.68
2023-01-09T04:21:34.415Z,28.71
2023-01-09T04:24:05.168Z,28.69
2023-01-09T04:26:35.814Z,28.74
2023-01-09T04:29:06.168Z,28.74
2023-01-09T04:31:36.843Z,28.73
2023-01-09T04:34:07.398Z,28.73
2023-01-09T04:36:38.255Z,28.71
2023-01-09T04:39:11.879Z,28.75
2023-01-09T04:41:51.782Z,28.75
2023-01-09T04:44:27.387Z,28.81
2023-01-09T04:46:59.979Z,28.83
2023-01-09T04:49:31.066Z,28.84
2023-01-09T04:52:02.102Z,28.96
2023-01-09T04:54:33.193Z,29.03
2023-01-09T04:57:07.525Z,29.10
2023-01-09T04:59:38.661Z,29.11
2023-01-09T05:02:09.445Z,29.17
2023-01-09T05:04:40.703Z,29.35
2023-01-09T05:07:11.121Z,29.43
2023-01-09T05:09:41.708Z,29.51
2023-01-09T05:12:12.581Z,29.62
2023-01-09T05:14:43.084Z,29.69
2023-01-09T05:17:16.131Z,29.74
2023-01-09T05:19:52.048Z,29.84
2023-01-09T05:22:22.663Z,29.94
2023-01-09T05:24:53.132Z,29.95
2023-01-09T05:27:24.151Z,29.99
2023-01-09T05:29:55.120Z,30.05
2023-01-09T05:32:26.496Z,30.05
2023-01-09T05:34:59.848Z,30.05
2023-01-09T05:37:30.491Z,30.03
2023-01-09T05:40:00.810Z,30.07
2023-01-09T05:42:31.374Z,30.13
2023-01-09T05:45:02.242Z,30.24
2023-01-09T05:47:33.697Z,30.28
2023-01-09T05:50:04.695Z,30.33
2023-01-09T05:52:38.387Z,30.28
2023-01-09T05:55:17.719Z,30.35
2023-01-09T05:57:47.968Z,30.37
2023-01-09T06:00:19.392Z,30.51
2023-01-09T06:02:52.441Z,30.46
2023-01-09T06:05:25.633Z,30.40
2023-01-09T06:07:58.719Z,30.37
2023-01-09T06:10:29.323Z,30.32
2023-01-09T06:13:03.108Z,30.29
2023-01-09T06:15:35.405Z,30.19
2023-01-09T06:18:05.837Z,30.11
2023-01-09T06:20:37.208Z,30.05
2023-01-09T06:23:07.775Z,29.97
2023-01-09T06:25:39.509Z,29.90
2023-01-09T06:28:09.999Z,29.83
2023-01-09T06:30:40.587Z,29.79
2023-01-09T06:33:11.565Z,29.70
2023-01-09T06:35:42.665Z,29.58
2023-01-09T06:38:13.405Z,29.54
2023-01-09T06:40:44.060Z,29.50
2023-01-09T06:43:14.428Z,29.51
2023-01-09T06:45:46.615Z,29.50
2023-01-09T06:48:19.077Z,29.41
2023-01-09T06:51:07.882Z,29.33
2023-01-09T06:53:38.865Z,29.26
2023-01-09T06:56:09.302Z,29.27
2023-01-09T06:58:39.843Z,29.21
2023-01-09T07:01:11.444Z,29.16
2023-01-09T07:03:42.138Z,29.14
2023-01-09T07:06:14.117Z,29.11
2023-01-09T07:08:47.868Z,29.11
2023-01-09T07:11:20.609Z,29.08
2023-01-09T07:13:51.357Z,29.02
2023-01-09T07:16:27.889Z,29.03
2023-01-09T07:18:58.770Z,29.03
2023-01-09T07:21:31.397Z,28.98
2023-01-09T07:24:07.433Z,28.97
2023-01-09T07:26:42.129Z,29.00
2023-01-09T07:29:14.370Z,28.92
2023-01-09T07:31:48.009Z,28.92
2023-01-09T07:34:22.589Z,28.89
2023-01-09T07:36:53.162Z,28.91
2023-01-09T07:39:25.608Z,28.86
2023-01-09T07:41:55.968Z,28.88
2023-01-09T07:44:26.293Z,28.86
2023-01-09T07:46:56.652Z,28.89
2023-01-09T07:49:27.210Z,28.85
2023-01-09T07:51:57.956Z,28.85
2023-01-09T07:54:28.430Z,28.85
2023-01-09T07:56:58.762Z,28.87
2023-01-09T07:59:30.650Z,28.86
2023-01-09T08:02:03.466Z,28.91
2023-01-09T08:04:42.713Z,28.91
2023-01-09T08:07:13.046Z,28.86
2023-01-09T08:09:44.004Z,28.90
2023-01-09T08:12:14.215Z,28.89
2023-01-09T08:14:44.658Z,28.90
2023-01-09T08:17:15.828Z,28.90
2023-01-09T08:19:46.450Z,28.89
2023-01-09T08:22:16.719Z,28.88
2023-01-09T08:24:47.548Z,28.89
2023-01-09T08:27:18.161Z,28.86
2023-01-09T08:29:49.267Z,28.88
2023-01-09T08:32:19.839Z,28.90
2023-01-09T08:34:50.797Z,28.89
2023-01-09T08:37:27.437Z,28.91
2023-01-09T08:39:57.692Z,28.88
2023-01-09T08:42:46.381Z,28.91
2023-01-09T08:45:35.352Z,28.91
2023-01-09T08:48:06.794Z,28.86
2023-01-09T08:50:38.460Z,28.84
2023-01-09T08:53:09.230Z,28.83
2023-01-09T08:55:39.958Z,28.82
2023-01-09T08:58:10.268Z,28.79
2023-01-09T09:00:41.022Z,28.80
2023-01-09T09:03:14.158Z,28.76
2023-01-09T09:05:46.740Z,28.69
2023-01-09T09:08:25.901Z,28.72
2023-01-09T09:11:02.335Z,28.69
2023-01-09T09:13:35.505Z,28.68
2023-01-09T09:16:06.033Z,28.63
2023-01-09T09:18:36.418Z,28.64
2023-01-09T09:21:06.934Z,28.64
2023-01-09T09:23:39.787Z,28.64
2023-01-09T09:26:10.613Z,28.65
2023-01-09T09:28:41.591Z,28.65
2023-01-09T09:31:15.222Z,28.62
2023-01-09T09:33:45.954Z,28.64
2023-01-09T09:36:16.513Z,28.62
2023-01-09T09:38:46.974Z,28.66
2023-01-09T09:41:47.469Z,28.65
2023-01-09T09:44:55.198Z,28.69
2023-01-09T09:47:41.416Z,28.61
2023-01-09T09:50:42.686Z,28.61
2023-01-09T09:53:27.998Z,28.61
2023-01-09T09:56:02.659Z,28.57
2023-01-09T09:58:39.270Z,28.57
2023-01-09T10:01:11.574Z,28.54
2023-01-09T10:03:55.043Z,28.53
2023-01-09T10:06:32.628Z,28.51
2023-01-09T10:09:13.324Z,28.48
2023-01-09T10:12:28.109Z,28.49
2023-01-09T10:15:03.756Z,28.43
2023-01-09T10:17:58.425Z,28.44
2023-01-09T10:20:50.818Z,28.43
2023-01-09T10:23:28.684Z,28.39
2023-01-09T10:26:03.806Z,28.38
2023-01-09T10:28:47.098Z,28.30
2023-01-09T10:31:39.446Z,28.34
2023-01-09T10:34:40.653Z,28.38
2023-01-09T10:37:49.615Z,28.33
2023-01-09T10:40:23.819Z,28.30
2023-01-09T10:43:22.368Z,28.31
2023-01-09T10:46:00.441Z,28.25
2023-01-09T10:48:37.853Z,28.24
2023-01-09T10:51:45.831Z,28.34
2023-01-09T10:54:23.137Z,28.25
2023-01-09T10:57:04.319Z,28.27
2023-01-09T10:59:35.505Z,28.29
2023-01-09T11:02:05.934Z,28.26
2023-01-09T11:04:39.785Z,28.25
2023-01-09T11:07:37.512Z,28.27
2023-01-09T11:10:12.865Z,28.22
2023-01-09T11:12:44.211Z,28.17
2023-01-09T11:15:20.239Z,28.17
2023-01-09T11:17:52.936Z,28.13
2023-01-09T11:20:29.651Z,28.12
2023-01-09T11:23:00.490Z,28.12
2023-01-09T11:25:36.772Z,28.10
2023-01-09T11:28:11.129Z,28.04
2023-01-09T11:31:03.931Z,28.17
2023-01-09T11:33:43.996Z,28.14
2023-01-09T11:36:17.717Z,28.19
2023-01-09T11:38:52.402Z,28.17
2023-01-09T11:41:39.312Z,28.21
2023-01-09T11:44:15.455Z,28.15
2023-01-09T11:46:47.616Z,28.13
2023-01-09T11:49:30.259Z,28.14
2023-01-09T11:52:23.468Z,28.17
2023-01-09T11:55:07.929Z,28.24
2023-01-09T11:57:38.929Z,28.22
2023-01-09T12:00:33.386Z,28.24
2023-01-09T12:03:29.029Z,28.24
2023-01-09T12:06:26.528Z,28.29
2023-01-09T12:09:31.828Z,28.33
2023-01-09T12:12:26.124Z,28.28
2023-01-09T12:15:35.232Z,28.34
2023-01-09T12:18:38.013Z,28.36
2023-01-09T12:21:36.576Z,28.36
2023-01-09T12:24:07.919Z,28.32
2023-01-09T12:27:00.970Z,28.40
2023-01-09T12:29:43.988Z,28.37
2023-01-09T12:32:23.390Z,28.36
2023-01-09T12:34:56.762Z,28.38
2023-01-09T12:37:42.305Z,28.39
2023-01-09T12:40:18.594Z,28.34
2023-01-09T12:42:51.982Z,28.31
2023-01-09T12:45:43.896Z,28.38
2023-01-09T12:48:46.439Z,28.41
2023-01-09T12:51:35.332Z,28.39
2023-01-09T12:54:24.163Z,28.40
2023-01-09T12:56:57.602Z,28.35
2023-01-09T12:59:46.574Z,28.38
2023-01-09T13:02:46.764Z,28.37
2023-01-09T13:05:25.005Z,28.36
2023-01-09T13:08:08.093Z,28.37
2023-01-09T13:10:45.298Z,28.36
2023-01-09T13:14:00.169Z,28.40
2023-01-09T13:16:44.565Z,28.34
2023-01-09T13:19:38.401Z,28.37
2023-01-09T13:22:09.188Z,28.33
2023-01-09T13:24:54.348Z,28.32
2023-01-09T13:27:26.512Z,28.32
2023-01-09T13:30:12.135Z,28.31
2023-01-09T13:33:20.330Z,28.33
2023-01-09T13:35:55.672Z,28.32
2023-01-09T13:38:28.423Z,28.32
2023-01-09T13:41:45.828Z,28.33
2023-01-09T13:44:29.977Z,28.32
2023-01-09T13:47:02.903Z,28.28
2023-01-09T13:49:38.565Z,28.26
2023-01-09T13:52:40.297Z,28.32
2023-01-09T13:55:17.010Z,28.25
2023-01-09T13:58:05.768Z,28.27
2023-01-09T14:00:50.319Z,28.19
2023-01-09T14:03:41.533Z,28.14
2023-01-09T14:06:17.320Z,28.14
2023-01-09T14:08:50.407Z,28.10
2023-01-09T14:11:23.072Z,28.09
2023-01-09T14:14:03.175Z,28.07
2023-01-09T14:16:34.929Z,28.02
2023-01-09T14:19:25.275Z,28.07
2023-01-09T14:21:59.170Z,28.02
2023-01-09T14:24:53.411Z,28.00
2023-01-09T14:28:09.879Z,28.03
2023-01-09T14:31:00.256Z,27.96
2023-01-09T14:33:34.160Z,27.93
2023-01-09T14:36:22.761Z,27.93
2023-01-09T14:39:02.454Z,27.90
2023-01-09T14:42:03.357Z,27.68
2023-01-09T14:44:54.456Z,27.67
2023-01-09T14:47:35.542Z,27.66
2023-01-09T14:50:33.141Z,27.62
2023-01-09T14:53:20.250Z,27.56
2023-01-09T14:56:04.001Z,27.57
2023-01-09T14:58:37.387Z,27.52
2023-01-09T15:01:07.774Z,27.51
2023-01-09T15:03:45.437Z,27.49
2023-01-09T15:06:32.850Z,27.56
2023-01-09T15:09:09.395Z,27.47
2023-01-09T15:11:41.337Z,27.44
2023-01-09T15:14:36.978Z,27.50
2023-01-09T15:17:40.323Z,27.44
2023-01-09T15:20:23.087Z,27.42
2023-01-09T15:22:56.067Z,27.36
2023-01-09T15:25:44.931Z,27.40
2023-01-09T15:28:26.811Z,27.39
2023-01-09T15:31:08.712Z,27.44
2023-01-09T15:33:41.697Z,27.41
2023-01-09T15:36:25.172Z,27.41
2023-01-09T15:38:56.519Z,27.31
2023-01-09T15:42:05.947Z,27.25
2023-01-09T15:44:39.744Z,27.24
2023-01-09T15:47:16.861Z,27.35
2023-01-09T15:49:47.955Z,27.27
2023-01-09T15:52:20.497Z,27.31
2023-01-09T15:54:51.312Z,27.17
2023-01-09T15:57:27.969Z,27.23
2023-01-09T16:00:32.617Z,27.28
2023-01-09T16:03:13.528Z,27.15
2023-01-09T16:05:49.908Z,27.15
2023-01-09T16:08:26.571Z,27.15
2023-01-09T16:11:10.860Z,27.16
2023-01-09T16:13:45.699Z,27.17
2023-01-09T16:16:26.664Z,27.13
2023-01-09T16:18:58.341Z,27.10
2023-01-09T16:21:38.597Z,27.04
2023-01-09T16:24:18.977Z,27.11
2023-01-09T16:26:53.000Z,27.08
2023-01-09T16:29:31.607Z,27.03
2023-01-09T16:32:06.355Z,27.06
2023-01-09T16:34:37.315Z,27.04
2023-01-09T16:37:08.072Z,27.01
2023-01-09T16:39:39.673Z,27.04
2023-01-09T16:42:28.963Z,26.98
2023-01-09T16:44:59.224Z,26.97
2023-01-09T16:47:30.006Z,27.04
2023-01-09T16:50:06.143Z,26.94
2023-01-09T16:52:36.954Z,26.96
2023-01-09T16:55:07.898Z,26.98
2023-01-09T16:57:38.792Z,26.93
2023-01-09T17:00:19.448Z,27.12
2023-01-09T17:02:49.675Z,27.07
2023-01-09T17:05:20.095Z,27.01
2023-01-09T17:07:50.884Z,27.03
2023-01-09T17:10:25.984Z,27.08
2023-01-09T17:12:57.998Z,27.02
2023-01-09T17:15:30.381Z,26.99
2023-01-09T17:18:19.077Z,27.07
2023-01-09T17:20:52.132Z,27.07
2023-01-09T17:23:23.448Z,27.10
2023-01-09T17:26:16.025Z,27.08
2023-01-09T17:28:51.217Z,27.05
2023-01-09T17:31:21.794Z,27.05
2023-01-09T17:33:54.043Z,27.02
2023-01-09T17:36:33.061Z,27.02
2023-01-09T17:39:04.313Z,26.98
2023-01-09T17:41:35.172Z,26.97
2023-01-09T17:44:05.745Z,26.98
2023-01-09T17:46:38.752Z,26.93
2023-01-09T17:49:15.670Z,26.92
2023-01-09T17:51:52.388Z,26.91
2023-01-09T17:54:25.344Z,26.90
2023-01-09T17:57:02.361Z,26.92
2023-01-09T17:59:33.119Z,26.90
2023-01-09T18:02:04.184Z,26.87
2023-01-09T18:04:43.442Z,26.90
2023-01-09T18:07:17.758Z,26.87
2023-01-09T18:09:48.103Z,26.86
2023-01-09T18:12:18.864Z,26.85
2023-01-09T18:14:49.346Z,26.86
2023-01-09T18:17:20.343Z,26.85
2023-01-09T18:19:51.782Z,26.84
2023-01-09T18:22:22.922Z,26.80
2023-01-09T18:24:53.748Z,26.76
2023-01-09T18:27:24.468Z,26.80
2023-01-09T18:29:55.297Z,26.78
2023-01-09T18:32:26.049Z,26.77
2023-01-09T18:34:56.373Z,26.74
2023-01-09T18:37:28.346Z,26.81
2023-01-09T18:39:58.746Z,26.78
2023-01-09T18:42:29.456Z,26.82
2023-01-09T18:44:59.750Z,26.83
2023-01-09T18:47:30.264Z,26.81
2023-01-09T18:50:00.933Z,26.83
2023-01-09T18:52:31.188Z,26.83
2023-01-09T18:55:01.625Z,26.85
2023-01-09T18:57:32.137Z,26.81
2023-01-09T19:00:02.433Z,26.81
2023-01-09T19:02:33.086Z,26.78
2023-01-09T19:05:03.346Z,26.81
2023-01-09T19:07:33.928Z,26.82
2023-01-09T19:10:04.557Z,26.83
2023-01-09T19:12:35.130Z,26.79
2023-01-09T19:15:11.817Z,26.78
2023-01-09T19:17:42.577Z,26.73
2023-01-09T19:20:13.764Z,26.83
2023-01-09T19:22:44.251Z,26.83
2023-01-09T19:25:15.296Z,26.82
2023-01-09T19:27:46.398Z,26.81
2023-01-09T19:30:17.492Z,26.78
2023-01-09T19:32:47.974Z,26.80
2023-01-09T19:35:18.755Z,26.78
2023-01-09T19:37:51.576Z,26.78
2023-01-09T19:40:21.988Z,26.74
2023-01-09T19:42:55.458Z,26.73
2023-01-09T19:45:26.779Z,26.74
2023-01-09T19:47:57.436Z,26.69
2023-01-09T19:50:27.927Z,26.68
2023-01-09T19:52:58.280Z,26.64
2023-01-09T19:55:28.869Z,26.65
2023-01-09T19:58:00.345Z,26.64
2023-01-09T20:00:33.684Z,26.64
2023-01-09T20:03:06.550Z,26.63
2023-01-09T20:05:37.211Z,26.61
2023-01-09T20:08:18.337Z,26.61
2023-01-09T20:10:48.733Z,26.58
2023-01-09T20:13:19.092Z,26.58
2023-01-09T20:15:49.794Z,26.57
2023-01-09T20:18:20.027Z,26.55
2023-01-09T20:20:51.743Z,26.53
2023-01-09T20:23:23.166Z,26.52
2023-01-09T20:26:01.802Z,26.49
2023-01-09T20:28:32.408Z,26.50
2023-01-09T20:31:03.961Z,26.50
2023-01-09T20:33:37.076Z,26.47
2023-01-09T20:36:08.197Z,26.47
2023-01-09T20:38:39.867Z,26.46
2023-01-09T20:41:24.589Z,26.47
2023-01-09T20:43:58.388Z,26.46
2023-01-09T20:46:31.530Z,26.45
2023-01-09T20:49:07.488Z,26.45
2023-01-09T20:51:42.048Z,26.43
2023-01-09T20:54:12.438Z,26.38
2023-01-09T20:56:43.346Z,26.37
2023-01-09T20:59:18.034Z,26.34
2023-01-09T21:01:48.757Z,26.36
2023-01-09T21:04:19.932Z,26.34
2023-01-09T21:06:50.736Z,26.33
2023-01-09T21:09:21.786Z,26.32
2023-01-09T21:11:55.479Z,26.31
2023-01-09T21:14:28.592Z,26.31
2023-01-09T21:16:59.030Z,26.32
2023-01-09T21:19:29.263Z,26.32
2023-01-09T21:21:59.627Z,26.31
2023-01-09T21:24:30.508Z,26.28
2023-01-09T21:27:01.732Z,26.31
2023-01-09T21:29:32.737Z,26.26
2023-01-09T21:32:03.474Z,26.29
2023-01-09T21:34:34.663Z,26.27
2023-01-09T21:37:05.005Z,26.26
2023-01-09T21:39:35.650Z,26.24
2023-01-09T21:42:24.426Z,26.23
2023-01-09T21:45:13.295Z,26.23
2023-01-09T21:47:44.780Z,26.21
2023-01-09T21:50:17.348Z,26.22
2023-01-09T21:52:47.811Z,26.18
2023-01-09T21:55:18.710Z,26.18
2023-01-09T21:57:50.057Z,26.17
2023-01-09T22:00:21.299Z,26.16
2023-01-09T22:02:51.934Z,26.15
2023-01-09T22:05:25.482Z,26.13
2023-01-09T22:07:57.508Z,26.14
2023-01-09T22:10:28.521Z,26.14
2023-01-09T22:13:21.433Z,26.16
2023-01-09T22:15:52.002Z,26.15
2023-01-09T22:18:23.372Z,26.12
2023-01-09T22:20:53.585Z,26.13
2023-01-09T22:23:24.548Z,26.10
2023-01-09T22:25:55.523Z,26.11
2023-01-09T22:28:26.631Z,26.10
2023-01-09T22:31:00.090Z,26.07
2023-01-09T22:33:30.956Z,26.07
2023-01-09T22:36:09.746Z,26.06
2023-01-09T22:38:40.247Z,26.05
2023-01-09T22:41:11.226Z,26.04
2023-01-09T22:43:41.653Z,26.06
2023-01-09T22:46:12.433Z,26.03
2023-01-09T22:48:43.519Z,26.02
2023-01-09T22:51:18.799Z,26.01
2023-01-09T22:53:49.481Z,26.00
2023-01-09T22:56:22.125Z,25.98
2023-01-09T22:58:54.452Z,25.98
2023-01-09T23:01:34.862Z,25.96
2023-01-09T23:04:15.385Z,25.95
2023-01-09T23:06:46.025Z,25.96
2023-01-09T23:09:16.328Z,25.97
2023-01-09T23:12:04.822Z,25.96
2023-01-09T23:14:40.007Z,25.97
2023-01-09T23:17:12.204Z,25.97
2023-01-09T23:19:45.996Z,25.98
2023-01-09T23:22:16.306Z,25.96
2023-01-09T23:24:52.468Z,25.97
2023-01-09T23:27:22.717Z,25.97
2023-01-09T23:29:53.401Z,25.98
2023-01-09T23:32:23.834Z,25.97
2023-01-09T23:34:59.279Z,25.99
2023-01-09T23:37:30.691Z,26.00
2023-01-09T23:40:01.223Z,26.01
2023-01-09T23:42:49.957Z,26.00
2023-01-09T23:45:20.728Z,26.02
2023-01-09T23:47:51.049Z,26.03
2023-01-09T23:50:22.031Z,26.02
2023-01-09T23:53:03.701Z,26.06
2023-01-09T23:55:36.363Z,26.05
2023-01-09T23:58:06.897Z,26.07
